createdAt,value
2023-06-27T00:00:20.146Z,16.74
2023-06-27T00:02:49.642Z,16.75
2023-06-27T00:05:18.774Z,16.77
2023-06-27T00:07:49.137Z,16.84
2023-06-27T00:10:18.384Z,16.87
2023-06-27T00:12:47.557Z,16.90
2023-06-27T00:15:20.154Z,16.96
2023-06-27T00:17:49.505Z,17.01
2023-06-27T00:20:18.697Z,17.03
2023-06-27T00:22:48.367Z,17.02
2023-06-27T00:25:18.324Z,17.04
2023-06-27T00:27:48.637Z,17.05
2023-06-27T00:30:17.784Z,17.02
2023-06-27T00:32:47.041Z,16.95
2023-06-27T00:35:16.227Z,16.94
2023-06-27T00:37:45.349Z,16.94
2023-06-27T00:40:14.568Z,16.91
2023-06-27T00:42:43.732Z,16.91
2023-06-27T00:45:12.960Z,16.94
2023-06-27T00:47:42.171Z,16.96
2023-06-27T00:50:11.530Z,16.91
2023-06-27T00:52:41.339Z,16.83
2023-06-27T00:55:10.608Z,16.74
2023-06-27T00:57:41.395Z,16.64
2023-06-27T01:00:12.778Z,16.59
2023-06-27T01:02:42.102Z,16.64
2023-06-27T01:05:11.796Z,16.60
2023-06-27T01:08:03.943Z,16.54
2023-06-27T01:10:38.883Z,16.49
2023-06-27T01:13:13.893Z,16.46
2023-06-27T01:15:43.802Z,16.49
2023-06-27T01:18:13.790Z,16.49
2023-06-27T01:20:46.230Z,16.49
2023-06-27T01:23:33.894Z,16.46
2023-06-27T01:26:06.097Z,16.45
2023-06-27T01:28:39.737Z,16.49
2023-06-27T01:31:14.208Z,16.55
2023-06-27T01:33:49.867Z,16.61
2023-06-27T01:36:27.485Z,16.73
2023-06-27T01:39:02.727Z,16.83
2023-06-27T01:41:36.304Z,16.85
2023-06-27T01:44:08.150Z,16.85
2023-06-27T01:46:38.544Z,16.87
2023-06-27T01:49:09.766Z,16.91
2023-06-27T01:51:40.852Z,16.88
2023-06-27T01:54:10.089Z,16.93
2023-06-27T01:56:39.221Z,16.90
2023-06-27T01:59:08.387Z,16.86
2023-06-27T02:01:37.831Z,16.80
2023-06-27T02:04:07.915Z,16.80
2023-06-27T02:06:37.093Z,16.80
2023-06-27T02:09:06.321Z,16.74
2023-06-27T02:11:35.404Z,16.67
2023-06-27T02:14:04.560Z,16.67
2023-06-27T02:16:33.777Z,16.71
2023-06-27T02:19:02.938Z,16.76
2023-06-27T02:21:32.180Z,16.83
2023-06-27T02:24:01.817Z,16.90
2023-06-27T02:26:30.883Z,17.00
2023-06-27T02:28:59.960Z,16.99
2023-06-27T02:31:29.221Z,16.99
2023-06-27T02:33:59.867Z,17.05
2023-06-27T02:36:29.175Z,17.11
2023-06-27T02:39:01.514Z,17.14
2023-06-27T02:41:30.714Z,17.14
2023-06-27T02:43:59.828Z,17.13
2023-06-27T02:46:29.873Z,17.18
2023-06-27T02:48:59.059Z,17.19
2023-06-27T02:51:28.114Z,17.19
2023-06-27T02:53:57.725Z,17.23
2023-06-27T02:56:26.892Z,17.19
2023-06-27T02:58:56.345Z,17.14
2023-06-27T03:01:25.844Z,17.12
2023-06-27T03:04:05.622Z,17.12
2023-06-27T03:06:43.519Z,17.20
2023-06-27T03:09:12.662Z,17.27
2023-06-27T03:11:41.871Z,17.35
2023-06-27T03:14:11.085Z,17.35
2023-06-27T03:16:40.364Z,17.34
2023-06-27T03:19:09.585Z,17.30
2023-06-27T03:21:39.433Z,17.31
2023-06-27T03:24:08.919Z,17.32
2023-06-27T03:26:38.843Z,17.35
2023-06-27T03:29:08.704Z,17.39
2023-06-27T03:31:38.149Z,17.44
2023-06-27T03:34:07.657Z,17.48
2023-06-27T03:36:36.955Z,17.48
2023-06-27T03:39:06.205Z,17.50
2023-06-27T03:41:35.536Z,17.48
2023-06-27T03:44:06.676Z,17.29
2023-06-27T03:46:36.313Z,17.18
2023-06-27T03:49:07.955Z,17.10
2023-06-27T03:51:40.990Z,16.99
2023-06-27T03:54:10.744Z,16.95
2023-06-27T03:56:48.238Z,16.97
2023-06-27T03:59:17.452Z,17.04
2023-06-27T04:01:46.692Z,17.05
2023-06-27T04:04:15.862Z,17.06
2023-06-27T04:06:45.178Z,17.06
2023-06-27T04:09:14.360Z,17.08
2023-06-27T04:11:43.559Z,17.08
2023-06-27T04:14:12.780Z,17.10
2023-06-27T04:16:41.996Z,17.12
2023-06-27T04:19:11.290Z,17.21
2023-06-27T04:21:40.404Z,17.26
2023-06-27T04:24:09.564Z,17.35
2023-06-27T04:26:38.653Z,17.45
2023-06-27T04:29:07.743Z,17.59
2023-06-27T04:31:36.987Z,17.68
2023-06-27T04:34:06.367Z,17.79
2023-06-27T04:36:38.155Z,17.91
2023-06-27T04:39:07.385Z,18.00
2023-06-27T04:41:36.479Z,18.10
2023-06-27T04:44:06.483Z,18.24
2023-06-27T04:46:35.692Z,18.36
2023-06-27T04:49:05.205Z,18.47
2023-06-27T04:51:34.815Z,18.63
2023-06-27T04:54:04.034Z,18.77
2023-06-27T04:56:34.709Z,18.92
2023-06-27T04:59:03.858Z,19.10
2023-06-27T05:04:52.148Z,19.39
2023-06-27T05:07:21.642Z,19.57
2023-06-27T05:09:50.797Z,19.73
2023-06-27T05:12:19.924Z,19.80
2023-06-27T05:14:49.067Z,19.85
2023-06-27T05:17:18.391Z,19.84
2023-06-27T05:19:47.648Z,19.84
2023-06-27T05:22:16.854Z,19.78
2023-06-27T05:24:45.916Z,19.71
2023-06-27T05:27:15.076Z,19.72
2023-06-27T05:29:44.172Z,19.69
2023-06-27T05:32:13.303Z,19.66
2023-06-27T05:34:42.627Z,19.79
2023-06-27T05:37:11.739Z,19.90
2023-06-27T05:39:41.078Z,19.95
2023-06-27T05:42:10.225Z,20.07
2023-06-27T05:44:39.353Z,20.18
2023-06-27T05:47:08.468Z,20.31
2023-06-27T05:49:37.581Z,20.44
2023-06-27T05:52:06.977Z,20.57
2023-06-27T05:54:36.070Z,20.69
2023-06-27T05:57:05.658Z,20.79
2023-06-27T05:59:34.838Z,20.89
2023-06-27T06:02:04.960Z,21.00
2023-06-27T06:04:34.178Z,21.03
2023-06-27T06:07:05.106Z,21.13
2023-06-27T06:09:34.406Z,21.24
2023-06-27T06:12:04.004Z,21.32
2023-06-27T06:14:33.130Z,21.43
2023-06-27T06:17:02.253Z,21.55
2023-06-27T06:19:31.389Z,21.69
2023-06-27T06:22:00.517Z,21.79
2023-06-27T06:24:29.768Z,21.95
2023-06-27T06:26:58.846Z,22.06
2023-06-27T06:29:28.102Z,22.24
2023-06-27T06:31:57.408Z,22.39
2023-06-27T06:34:26.626Z,22.63
2023-06-27T06:36:56.124Z,22.88
2023-06-27T06:39:25.242Z,23.18
2023-06-27T06:41:54.385Z,23.36
2023-06-27T06:44:23.546Z,23.50
2023-06-27T06:46:52.674Z,23.73
2023-06-27T06:49:21.814Z,23.91
2023-06-27T06:51:50.909Z,24.00
2023-06-27T06:54:20.079Z,23.97
2023-06-27T06:56:50.812Z,23.92
2023-06-27T06:59:19.980Z,23.87
2023-06-27T07:01:49.121Z,23.85
2023-06-27T07:04:18.392Z,23.83
2023-06-27T07:06:49.614Z,23.91
2023-06-27T07:09:18.861Z,24.00
2023-06-27T07:11:49.343Z,24.04
2023-06-27T07:14:19.311Z,24.12
2023-06-27T07:16:48.427Z,24.22
2023-06-27T07:19:17.664Z,24.25
2023-06-27T07:21:46.886Z,24.33
2023-06-27T07:26:45.333Z,24.42
2023-06-27T07:29:14.469Z,24.41
2023-06-27T07:31:43.595Z,24.47
2023-06-27T07:34:12.744Z,24.57
2023-06-27T07:36:41.819Z,24.74
2023-06-27T07:39:11.726Z,24.91
2023-06-27T07:41:41.160Z,25.05
2023-06-27T07:44:10.483Z,25.21
2023-06-27T07:46:39.554Z,25.27
2023-06-27T07:49:09.078Z,25.28
2023-06-27T07:51:38.236Z,25.39
2023-06-27T07:54:07.383Z,25.59
2023-06-27T07:56:36.867Z,25.84
2023-06-27T07:59:06.970Z,25.96
2023-06-27T08:01:37.183Z,26.11
2023-06-27T08:04:06.416Z,26.14
2023-06-27T08:06:35.533Z,26.07
2023-06-27T08:09:04.733Z,26.20
2023-06-27T08:11:33.844Z,26.30
2023-06-27T08:14:03.185Z,26.48
2023-06-27T08:16:32.368Z,26.58
2023-06-27T08:19:01.935Z,26.73
2023-06-27T08:21:31.114Z,26.83
2023-06-27T08:24:00.250Z,26.96
2023-06-27T08:26:29.350Z,27.21
2023-06-27T08:28:58.494Z,27.38
2023-06-27T08:31:27.739Z,27.49
2023-06-27T08:33:56.995Z,27.73
2023-06-27T08:36:26.285Z,27.83
2023-06-27T08:38:55.396Z,27.61
2023-06-27T08:41:24.642Z,27.54
2023-06-27T08:43:56.167Z,27.47
2023-06-27T08:46:27.963Z,27.32
2023-06-27T08:49:01.168Z,27.21
2023-06-27T08:51:38.636Z,27.35
2023-06-27T08:54:29.099Z,27.75
2023-06-27T08:57:00.054Z,27.88
2023-06-27T08:59:34.399Z,28.10
2023-06-27T09:02:04.897Z,28.06
2023-06-27T09:04:34.927Z,28.13
2023-06-27T09:07:07.964Z,27.94
2023-06-27T09:09:37.486Z,27.94
2023-06-27T09:12:08.632Z,27.89
2023-06-27T09:14:38.433Z,28.04
2023-06-27T09:17:07.651Z,27.93
2023-06-27T09:19:38.272Z,27.83
2023-06-27T09:22:07.752Z,27.83
2023-06-27T09:24:42.184Z,27.71
2023-06-27T09:27:33.071Z,27.78
2023-06-27T09:30:03.965Z,27.69
2023-06-27T09:32:33.564Z,27.70
2023-06-27T09:35:04.937Z,27.73
2023-06-27T09:40:21.352Z,27.67
2023-06-27T09:42:56.182Z,27.70
2023-06-27T09:45:30.476Z,27.65
2023-06-27T09:47:59.848Z,27.55
2023-06-27T09:50:31.500Z,27.49
2023-06-27T09:53:02.594Z,27.62
2023-06-27T09:55:31.977Z,27.65
2023-06-27T09:58:02.490Z,27.46
2023-06-27T10:00:31.908Z,27.47
2023-06-27T10:03:01.214Z,27.46
2023-06-27T10:08:19.713Z,26.56
2023-06-27T10:10:49.934Z,26.63
2023-06-27T10:13:19.510Z,26.59
2023-06-27T10:15:49.356Z,26.45
2023-06-27T10:18:18.556Z,26.51
2023-06-27T10:20:47.885Z,26.62
2023-06-27T10:23:17.469Z,26.95
2023-06-27T10:25:47.044Z,27.23
2023-06-27T10:28:16.768Z,27.18
2023-06-27T10:30:47.336Z,26.81
2023-06-27T10:33:30.206Z,26.43
2023-06-27T10:36:03.780Z,26.26
2023-06-27T10:38:35.627Z,25.98
2023-06-27T10:41:08.097Z,25.81
2023-06-27T10:43:38.048Z,25.76
2023-06-27T10:46:10.766Z,25.76
2023-06-27T10:48:51.275Z,25.80
2023-06-27T10:51:23.218Z,26.05
2023-06-27T10:54:20.133Z,26.05
2023-06-27T10:56:55.197Z,25.77
2023-06-27T10:59:24.529Z,25.65
2023-06-27T11:02:00.437Z,25.48
2023-06-27T11:04:41.838Z,25.41
2023-06-27T11:07:19.905Z,25.41
2023-06-27T11:09:56.739Z,25.36
2023-06-27T11:12:34.235Z,25.56
2023-06-27T11:15:03.846Z,25.70
2023-06-27T11:17:37.092Z,25.83
2023-06-27T11:20:09.378Z,25.74
2023-06-27T11:22:38.736Z,25.51
2023-06-27T11:25:15.695Z,25.44
2023-06-27T11:27:44.863Z,25.53
2023-06-27T11:30:17.414Z,25.63
2023-06-27T11:32:46.648Z,25.78
2023-06-27T11:35:16.847Z,25.96
2023-06-27T11:37:46.033Z,25.67
2023-06-27T11:40:18.125Z,25.60
2023-06-27T11:42:47.597Z,25.46
2023-06-27T11:45:16.846Z,25.24
2023-06-27T11:47:47.170Z,25.30
2023-06-27T11:50:16.425Z,25.47
2023-06-27T11:52:48.839Z,25.51
2023-06-27T11:55:18.069Z,25.40
2023-06-27T11:57:49.778Z,25.39
2023-06-27T12:00:23.255Z,25.49
2023-06-27T12:02:55.740Z,25.69
2023-06-27T12:05:26.380Z,25.87
2023-06-27T12:08:08.901Z,26.39
2023-06-27T12:10:53.517Z,26.85
2023-06-27T12:13:22.766Z,26.84
2023-06-27T12:15:51.879Z,26.63
2023-06-27T12:18:25.538Z,26.86
2023-06-27T12:20:55.859Z,27.32
2023-06-27T12:23:28.578Z,27.41
2023-06-27T12:25:57.809Z,27.34
2023-06-27T12:28:27.882Z,27.70
2023-06-27T12:30:57.146Z,29.09
2023-06-27T12:33:26.356Z,30.49
2023-06-27T12:35:55.745Z,31.55
2023-06-27T12:38:25.253Z,32.31
2023-06-27T12:40:54.341Z,31.04
2023-06-27T12:43:23.468Z,30.04
2023-06-27T12:46:02.917Z,30.60
2023-06-27T12:48:34.200Z,31.92
2023-06-27T12:51:04.102Z,31.14
2023-06-27T12:53:33.334Z,29.85
2023-06-27T12:56:05.611Z,28.81
2023-06-27T12:58:35.526Z,28.68
2023-06-27T13:01:05.871Z,28.92
2023-06-27T13:03:35.218Z,30.81
2023-06-27T13:06:04.515Z,32.01
2023-06-27T13:08:33.562Z,33.36
2023-06-27T13:11:02.697Z,34.71
2023-06-27T13:13:34.878Z,35.64
2023-06-27T13:18:37.440Z,34.94
2023-06-27T13:21:06.915Z,34.51
2023-06-27T13:23:37.450Z,33.03
2023-06-27T13:26:07.019Z,31.31
2023-06-27T13:28:36.114Z,30.13
2023-06-27T13:31:06.295Z,29.48
2023-06-27T13:33:35.642Z,29.35
2023-06-27T13:36:06.681Z,28.98
2023-06-27T13:38:35.814Z,28.23
2023-06-27T13:41:04.958Z,27.52
2023-06-27T13:43:36.044Z,27.11
2023-06-27T13:46:05.208Z,26.54
2023-06-27T13:48:35.271Z,26.23
2023-06-27T13:51:04.470Z,26.25
2023-06-27T13:53:33.562Z,26.40
2023-06-27T13:56:04.665Z,26.58
2023-06-27T13:58:34.004Z,26.70
2023-06-27T14:01:04.209Z,26.46
2023-06-27T14:03:33.504Z,25.98
2023-06-27T14:06:02.692Z,25.78
2023-06-27T14:08:31.899Z,25.66
2023-06-27T14:11:00.996Z,25.38
2023-06-27T14:13:30.125Z,25.22
2023-06-27T14:15:59.847Z,25.49
2023-06-27T14:18:29.007Z,26.94
2023-06-27T14:20:58.117Z,27.49
2023-06-27T14:23:28.900Z,28.08
2023-06-27T14:25:57.970Z,29.30
2023-06-27T14:28:27.085Z,29.67
2023-06-27T14:30:56.326Z,30.12
2023-06-27T14:33:25.520Z,29.80
2023-06-27T14:35:55.778Z,29.99
2023-06-27T14:38:25.053Z,29.34
2023-06-27T14:40:54.247Z,28.73
2023-06-27T14:43:23.391Z,27.74
2023-06-27T14:45:52.711Z,27.17
2023-06-27T14:48:22.642Z,27.13
2023-06-27T14:50:53.332Z,26.98
2023-06-27T14:53:22.488Z,26.67
2023-06-27T14:55:52.090Z,26.40
2023-06-27T14:58:21.251Z,26.17
2023-06-27T15:00:50.534Z,25.68
2023-06-27T15:03:19.777Z,25.12
2023-06-27T15:05:49.776Z,24.67
2023-06-27T15:10:48.437Z,23.97
2023-06-27T15:13:18.147Z,23.56
2023-06-27T15:15:47.576Z,23.35
2023-06-27T15:18:16.847Z,23.21
2023-06-27T15:20:46.087Z,23.20
2023-06-27T15:23:25.372Z,23.27
2023-06-27T15:26:03.326Z,23.42
2023-06-27T15:28:32.495Z,23.38
2023-06-27T15:31:01.854Z,23.28
2023-06-27T15:33:31.014Z,23.26
2023-06-27T15:36:00.227Z,23.17
2023-06-27T15:38:29.407Z,23.11
2023-06-27T15:40:58.493Z,23.33
2023-06-27T15:43:27.744Z,23.90
2023-06-27T15:45:56.858Z,24.28
2023-06-27T15:48:25.953Z,24.63
2023-06-27T15:50:55.470Z,24.76
2023-06-27T15:53:24.658Z,24.60
2023-06-27T15:55:53.753Z,24.45
2023-06-27T15:58:22.944Z,24.28
2023-06-27T16:00:52.141Z,24.19
2023-06-27T16:03:21.407Z,24.22
2023-06-27T16:05:50.760Z,24.29
2023-06-27T16:08:19.989Z,24.27
2023-06-27T16:10:49.126Z,24.16
2023-06-27T16:13:18.530Z,24.02
2023-06-27T16:15:47.673Z,23.90
2023-06-27T16:18:16.854Z,23.79
2023-06-27T16:20:47.778Z,23.68
2023-06-27T16:23:17.283Z,23.54
2023-06-27T16:25:46.509Z,23.40
2023-06-27T16:28:17.408Z,23.32
2023-06-27T16:30:48.505Z,23.29
2023-06-27T16:33:17.595Z,23.30
2023-06-27T16:35:46.712Z,23.24
2023-06-27T16:38:15.911Z,23.15
2023-06-27T16:40:45.348Z,23.01
2023-06-27T16:43:14.472Z,22.91
2023-06-27T16:45:43.779Z,22.75
2023-06-27T16:48:12.955Z,22.54
2023-06-27T16:50:42.428Z,22.55
2023-06-27T16:53:11.741Z,22.58
2023-06-27T16:55:41.639Z,22.57
2023-06-27T16:58:10.926Z,22.67
2023-06-27T17:00:40.166Z,23.16
2023-06-27T17:03:10.088Z,23.22
2023-06-27T17:05:39.724Z,23.19
2023-06-27T17:08:09.271Z,23.10
2023-06-27T17:10:45.539Z,23.01
2023-06-27T17:13:15.811Z,22.78
2023-06-27T17:15:44.985Z,22.56
2023-06-27T17:18:14.138Z,22.29
2023-06-27T17:20:43.287Z,22.06
2023-06-27T17:23:12.502Z,21.74
2023-06-27T17:25:42.032Z,21.57
2023-06-27T17:28:11.479Z,21.41
2023-06-27T17:30:41.063Z,21.24
2023-06-27T17:33:10.470Z,21.08
2023-06-27T17:35:39.857Z,20.98
2023-06-27T17:38:09.428Z,20.86
2023-06-27T17:40:38.765Z,20.82
2023-06-27T17:43:08.822Z,20.84
2023-06-27T17:45:39.216Z,20.81
2023-06-27T17:48:09.093Z,20.73
2023-06-27T17:50:38.400Z,20.70
2023-06-27T17:53:07.533Z,20.67
2023-06-27T17:55:36.726Z,20.62
2023-06-27T17:58:06.052Z,20.54
2023-06-27T18:00:35.506Z,20.52
2023-06-27T18:03:05.137Z,20.45
2023-06-27T18:05:35.274Z,20.38
2023-06-27T18:08:13.450Z,20.28
2023-06-27T18:10:43.885Z,20.20
2023-06-27T18:13:13.920Z,20.09
2023-06-27T18:15:43.970Z,20.01
2023-06-27T18:18:13.277Z,19.95
2023-06-27T18:20:43.267Z,19.84
2023-06-27T18:23:13.616Z,19.75
2023-06-27T18:25:42.806Z,19.71
2023-06-27T18:28:12.402Z,19.66
2023-06-27T18:30:42.159Z,19.59
2023-06-27T18:33:11.883Z,19.54
2023-06-27T18:35:41.200Z,19.50
2023-06-27T18:38:10.530Z,19.42
2023-06-27T18:40:39.852Z,19.39
2023-06-27T18:43:09.489Z,19.32
2023-06-27T18:45:40.302Z,19.32
2023-06-27T18:48:10.180Z,19.29
2023-06-27T18:50:39.691Z,19.26
2023-06-27T18:53:09.151Z,19.26
2023-06-27T18:55:38.516Z,19.25
2023-06-27T18:58:08.441Z,19.17
2023-06-27T19:00:37.813Z,19.12
2023-06-27T19:03:07.220Z,19.01
2023-06-27T19:05:39.774Z,18.95
2023-06-27T19:08:11.481Z,18.88
2023-06-27T19:10:44.191Z,18.84
2023-06-27T19:13:14.317Z,18.84
2023-06-27T19:15:43.915Z,18.79
2023-06-27T19:18:13.247Z,18.77
2023-06-27T19:20:43.964Z,18.77
2023-06-27T19:23:14.113Z,18.76
2023-06-27T19:25:43.507Z,18.77
2023-06-27T19:28:12.916Z,18.77
2023-06-27T19:30:43.351Z,18.76
2023-06-27T19:33:13.768Z,18.75
2023-06-27T19:35:43.635Z,18.77
2023-06-27T19:38:13.346Z,18.74
2023-06-27T19:40:43.358Z,18.76
2023-06-27T19:43:13.224Z,18.74
2023-06-27T19:45:43.115Z,18.76
2023-06-27T19:48:12.405Z,18.75
2023-06-27T19:50:41.914Z,18.70
2023-06-27T19:53:12.868Z,18.71
2023-06-27T19:55:42.595Z,18.70
2023-06-27T19:58:12.111Z,18.68
2023-06-27T20:00:41.913Z,18.66
2023-06-27T20:03:11.254Z,18.64
2023-06-27T20:05:40.479Z,18.61
2023-06-27T20:08:11.978Z,18.55
2023-06-27T20:10:42.215Z,18.47
2023-06-27T20:13:11.775Z,18.44
2023-06-27T20:15:41.799Z,18.39
2023-06-27T20:18:11.472Z,18.29
2023-06-27T20:20:41.356Z,18.17
2023-06-27T20:23:10.838Z,18.10
2023-06-27T20:25:40.117Z,17.99
2023-06-27T20:28:09.897Z,17.97
2023-06-27T20:30:39.486Z,17.91
2023-06-27T20:33:08.926Z,17.89
2023-06-27T20:35:38.058Z,17.88
2023-06-27T20:38:07.314Z,17.82
2023-06-27T20:40:36.524Z,17.74
2023-06-27T20:43:05.793Z,17.70
2023-06-27T20:45:34.936Z,17.65
2023-06-27T20:48:04.434Z,17.63
2023-06-27T20:50:33.624Z,17.58
2023-06-27T20:53:02.904Z,17.53
2023-06-27T20:55:32.006Z,17.49
2023-06-27T20:58:01.152Z,17.44
2023-06-27T21:00:30.327Z,17.38
2023-06-27T21:02:59.495Z,17.36
2023-06-27T21:05:28.604Z,17.34
2023-06-27T21:07:57.729Z,17.32
2023-06-27T21:10:26.805Z,17.33
2023-06-27T21:12:55.959Z,17.31
2023-06-27T21:15:25.104Z,17.28
2023-06-27T21:17:54.356Z,17.21
2023-06-27T21:20:23.506Z,17.17
2023-06-27T21:22:52.593Z,17.11
2023-06-27T21:25:21.694Z,17.06
2023-06-27T21:27:52.279Z,17.00
2023-06-27T21:30:21.696Z,16.92
2023-06-27T21:32:50.826Z,16.84
2023-06-27T21:35:20.570Z,16.74
2023-06-27T21:37:49.693Z,16.68
2023-06-27T21:40:18.806Z,16.58
2023-06-27T21:42:48.595Z,16.49
2023-06-27T21:45:17.771Z,16.41
2023-06-27T21:47:46.963Z,16.32
2023-06-27T21:50:23.433Z,16.28
2023-06-27T21:52:52.868Z,16.23
2023-06-27T21:55:22.157Z,16.20
2023-06-27T21:57:51.295Z,16.19
2023-06-27T22:00:20.520Z,16.17
2023-06-27T22:02:51.337Z,16.12
2023-06-27T22:05:21.800Z,16.10
2023-06-27T22:07:51.441Z,16.10
2023-06-27T22:10:21.196Z,16.05
2023-06-27T22:12:50.289Z,16.02
2023-06-27T22:15:19.447Z,15.96
2023-06-27T22:17:49.585Z,15.88
2023-06-27T22:20:18.968Z,15.79
2023-06-27T22:22:48.135Z,15.74
2023-06-27T22:25:17.264Z,15.70
2023-06-27T22:27:46.405Z,15.69
2023-06-27T22:30:15.669Z,15.70
2023-06-27T22:32:45.725Z,15.65
2023-06-27T22:35:14.954Z,15.58
2023-06-27T22:37:44.109Z,15.56
2023-06-27T22:40:13.607Z,15.55
2023-06-27T22:42:42.787Z,15.50
2023-06-27T22:45:11.928Z,15.49
2023-06-27T22:47:41.294Z,15.47
2023-06-27T22:50:10.808Z,15.49
2023-06-27T22:52:39.958Z,15.49
2023-06-27T22:55:09.224Z,15.48
2023-06-27T22:57:38.339Z,15.47
2023-06-27T23:00:09.035Z,15.45
2023-06-27T23:02:38.295Z,15.41
2023-06-27T23:05:07.999Z,15.40
2023-06-27T23:07:37.238Z,15.38
2023-06-27T23:10:07.063Z,15.41
2023-06-27T23:12:36.787Z,15.40
2023-06-27T23:15:06.306Z,15.36
2023-06-27T23:17:37.864Z,15.34
2023-06-27T23:20:09.550Z,15.31
2023-06-27T23:22:39.840Z,15.23
2023-06-27T23:25:12.164Z,15.24
2023-06-27T23:27:42.995Z,15.24
2023-06-27T23:30:13.929Z,15.25
2023-06-27T23:32:50.056Z,15.25
2023-06-27T23:35:20.527Z,15.20
2023-06-27T23:37:49.893Z,15.21
2023-06-27T23:40:19.001Z,15.20
2023-06-27T23:42:48.849Z,15.18
2023-06-27T23:45:17.936Z,15.13
2023-06-27T23:47:47.100Z,15.03
2023-06-27T23:50:16.206Z,14.96
2023-06-27T23:52:45.336Z,14.87
2023-06-27T23:55:14.474Z,14.87
2023-06-27T23:57:43.655Z,14.84
